Time;durP1;ratioP1;P1;durP2;ratioP2;P2;SDS_P1;SDS_P2;PMS_P1;PMS_P2;Temp;Humidity;BMP_temperature;BMP_pressure;BME280_temperature;BME280_humidity;BME280_pressure;Samples;Min_cycle;Max_cycle;Signal;HPM_P1;HPM_P2
2023/03/21 00:00:25;;;;;;;57.08;32.50;;;9.20;99.90;;;;;;6214695;23;20024;-71
2023/03/21 00:02:51;;;;;;;57.70;31.88;;;9.00;99.90;;;;;;6216069;23;20035;-71
2023/03/21 00:05:19;;;;;;;56.08;33.53;;;9.00;99.90;;;;;;6214745;23;20009;-71
2023/03/21 00:07:45;;;;;;;51.00;29.65;;;9.00;99.90;;;;;;6216337;23;20017;-71
2023/03/21 00:10:11;;;;;;;57.28;31.85;;;9.10;99.90;;;;;;6216204;23;20013;-71
2023/03/21 00:12:37;;;;;;;54.38;30.95;;;9.20;99.90;;;;;;6214149;23;20455;-71
2023/03/21 00:15:12;;;;;;;60.65;33.72;;;9.20;99.90;;;;;;6214188;23;20035;-71
2023/03/21 00:17:38;;;;;;;53.75;31.50;;;9.10;99.90;;;;;;6215682;23;20108;-71
2023/03/21 00:20:07;;;;;;;54.33;31.60;;;9.20;99.90;;;;;;6216046;23;20044;-71
2023/03/21 00:22:35;;;;;;;59.30;31.58;;;9.20;99.90;;;;;;6214626;23;20004;-71
2023/03/21 00:25:02;;;;;;;58.83;30.70;;;9.30;99.90;;;;;;6216037;23;20012;-71
2023/03/21 00:27:27;;;;;;;60.10;31.27;;;9.20;99.90;;;;;;6216431;23;20013;-72
2023/03/21 00:29:53;;;;;;;61.08;30.45;;;9.10;99.90;;;;;;6215987;23;20013;-71
2023/03/21 00:32:20;;;;;;;60.22;29.50;;;9.10;99.90;;;;;;6214152;23;20350;-72
2023/03/21 00:34:47;;;;;;;68.97;30.60;;;9.10;99.90;;;;;;6216328;23;20083;-71
2023/03/21 00:37:17;;;;;;;58.40;29.10;;;9.30;99.90;;;;;;6190979;23;20012;-71
2023/03/21 00:39:47;;;;;;;60.33;27.88;;;9.40;99.90;;;;;;6218056;23;20013;-71
2023/03/21 00:42:16;;;;;;;63.80;27.92;;;9.30;99.90;;;;;;6218027;23;20016;-71
2023/03/21 00:44:43;;;;;;;54.60;26.58;;;9.20;99.90;;;;;;6217649;23;20019;-71
2023/03/21 00:47:11;;;;;;;61.08;27.08;;;9.40;99.90;;;;;;6216074;23;20043;-71
2023/03/21 00:49:37;;;;;;;56.47;27.38;;;9.20;99.90;;;;;;6216101;23;20075;-71
2023/03/21 00:52:08;;;;;;;59.65;27.15;;;9.20;99.90;;;;;;6217881;23;20024;-71
2023/03/21 00:54:35;;;;;;;62.58;27.00;;;9.30;99.90;;;;;;6216051;23;20025;-71
2023/03/21 00:57:03;;;;;;;58.80;27.88;;;9.40;99.90;;;;;;6217758;23;20016;-71
2023/03/21 00:59:29;;;;;;;62.88;26.85;;;9.40;99.90;;;;;;6217471;23;20020;-71
2023/03/21 01:01:55;;;;;;;59.78;25.63;;;9.30;99.90;;;;;;6217819;23;20020;-71
2023/03/21 01:04:25;;;;;;;50.10;23.98;;;9.20;99.90;;;;;;6217846;23;20013;-71
2023/03/21 01:06:51;;;;;;;48.80;23.60;;;9.30;99.90;;;;;;6217683;23;20017;-71
2023/03/21 01:09:21;;;;;;;48.63;23.45;;;9.50;99.90;;;;;;6216075;23;20021;-71
2023/03/21 01:11:48;;;;;;;43.33;21.85;;;9.30;99.90;;;;;;6215779;23;20385;-71
2023/03/21 01:14:15;;;;;;;47.25;21.65;;;9.40;99.90;;;;;;6215859;23;20027;-71
2023/03/21 01:16:42;;;;;;;51.72;22.67;;;9.40;99.90;;;;;;6215560;23;20012;-71
2023/03/21 01:19:10;;;;;;;46.63;22.17;;;9.50;99.90;;;;;;6215644;23;20009;-71
2023/03/21 01:21:36;;;;;;;57.28;22.70;;;9.50;99.90;;;;;;6215688;23;20067;-71
2023/03/21 01:24:02;;;;;;;50.95;21.92;;;9.30;99.90;;;;;;6215837;23;20046;-71
2023/03/21 01:26:27;;;;;;;52.97;22.92;;;9.30;99.90;;;;;;6215660;23;20019;-71
2023/03/21 01:28:53;;;;;;;56.13;23.50;;;9.30;99.90;;;;;;6215648;23;20012;-71
2023/03/21 01:31:19;;;;;;;52.88;22.00;;;9.30;99.90;;;;;;6190677;23;20063;-71
2023/03/21 01:33:45;;;;;;;52.22;22.75;;;9.50;99.90;;;;;;6190575;23;20045;-72
2023/03/21 01:36:25;;;;;;;50.75;22.15;;;9.30;99.90;;;;;;6218152;23;20036;-71
2023/03/21 01:38:51;;;;;;;51.83;22.70;;;9.60;99.90;;;;;;6217685;23;20016;-72
2023/03/21 01:41:27;;;;;;;49.80;22.77;;;9.50;99.90;;;;;;6217387;23;20013;-71
2023/03/21 01:43:53;;;;;;;43.92;21.73;;;9.50;99.90;;;;;;6217548;23;20020;-72
2023/03/21 01:46:30;;;;;;;47.63;22.85;;;9.40;99.90;;;;;;6216725;23;20009;-71
2023/03/21 01:49:24;;;;;;;45.28;20.70;;;9.50;99.90;;;;;;6217425;23;20013;-71
2023/03/21 01:51:56;;;;;;;47.15;21.77;;;9.30;99.90;;;;;;6216801;23;20009;-71
2023/03/21 01:54:31;;;;;;;49.35;22.92;;;9.50;99.90;;;;;;6217108;23;20013;-71
2023/03/21 01:56:59;;;;;;;46.97;23.23;;;9.30;99.90;;;;;;6217233;23;20027;-71
2023/03/21 01:59:35;;;;;;;48.33;21.65;;;9.40;99.90;;;;;;6216898;23;20013;-71
2023/03/21 02:02:06;;;;;;;50.90;24.35;;;9.30;99.90;;;;;;6217312;23;20013;-71
2023/03/21 02:04:34;;;;;;;54.30;24.77;;;9.40;99.90;;;;;;6216908;23;20438;-71
2023/03/21 02:07:08;;;;;;;51.40;23.92;;;9.40;99.90;;;;;;6215201;23;20055;-71
2023/03/21 02:09:36;;;;;;;51.17;23.88;;;9.40;99.90;;;;;;6217438;23;20008;-71
2023/03/21 02:12:02;;;;;;;61.20;25.13;;;9.30;99.90;;;;;;6217574;23;20019;-71
2023/03/21 02:14:32;;;;;;;59.83;24.58;;;9.40;99.90;;;;;;6217094;23;20330;-71
2023/03/21 02:17:17;;;;;;;56.77;24.70;;;9.60;99.90;;;;;;6216662;23;20016;-71
2023/03/21 02:20:13;;;;;;;54.90;25.83;;;9.60;99.90;;;;;;6215267;23;20020;-71
2023/03/21 02:23:06;;;;;;;59.13;25.35;;;9.40;99.90;;;;;;6217934;23;20009;-71
2023/03/21 02:25:59;;;;;;;57.75;24.75;;;9.60;99.90;;;;;;6216656;23;20378;-71
2023/03/21 02:28:34;;;;;;;60.08;25.50;;;9.30;99.90;;;;;;6216985;23;20035;-71
2023/03/21 02:31:23;;;;;;;59.63;26.23;;;9.40;99.90;;;;;;6217107;23;20083;-71
2023/03/21 02:34:07;;;;;;;52.57;24.00;;;9.40;99.90;;;;;;6215146;23;20044;-71
2023/03/21 02:36:36;;;;;;;59.40;25.10;;;9.40;99.90;;;;;;6216878;23;20265;-71
2023/03/21 02:39:18;;;;;;;58.97;25.95;;;9.50;99.90;;;;;;6190144;23;20017;-71
2023/03/21 02:42:04;;;;;;;57.03;24.30;;;9.40;99.90;;;;;;6215900;23;20020;-71
2023/03/21 02:44:43;;;;;;;64.75;27.33;;;9.60;99.90;;;;;;6215851;23;20013;-71
2023/03/21 02:47:17;;;;;;;65.07;26.70;;;9.40;99.90;;;;;;6216838;23;20012;-71
2023/03/21 02:50:03;;;;;;;69.18;26.15;;;9.50;99.90;;;;;;6217490;23;20044;-71
2023/03/21 02:52:33;;;;;;;63.88;25.80;;;9.60;99.90;;;;;;6216508;23;20346;-71
2023/03/21 02:55:03;;;;;;;70.03;26.00;;;9.30;99.90;;;;;;6216657;23;20035;-71
2023/03/21 02:57:30;;;;;;;62.03;24.50;;;9.60;99.90;;;;;;6216511;23;20017;-72
2023/03/21 02:59:56;;;;;;;58.47;24.95;;;9.40;99.90;;;;;;6216806;23;20048;-71
2023/03/21 03:02:26;;;;;;;60.40;24.02;;;9.50;99.90;;;;;;6216385;23;20009;-71
2023/03/21 03:04:52;;;;;;;51.97;23.50;;;9.40;99.90;;;;;;6189762;23;20417;-71
2023/03/21 03:07:47;;;;;;;56.33;24.35;;;9.30;99.90;;;;;;6214739;23;20017;-71
2023/03/21 03:10:42;;;;;;;55.40;23.33;;;9.50;99.90;;;;;;6217001;23;20030;-71
2023/03/21 03:13:14;;;;;;;59.65;23.42;;;9.50;99.90;;;;;;6214809;23;20059;-71
2023/03/21 03:16:05;;;;;;;55.08;22.67;;;9.50;99.90;;;;;;6216141;23;20481;-71
2023/03/21 03:18:39;;;;;;;56.60;23.25;;;9.30;99.90;;;;;;6216468;23;20012;-71
2023/03/21 03:21:13;;;;;;;50.58;22.25;;;9.40;99.90;;;;;;6214668;23;20020;-71
2023/03/21 03:23:57;;;;;;;52.22;22.25;;;9.30;99.90;;;;;;6214816;23;20039;-71
2023/03/21 03:26:26;;;;;;;43.25;21.02;;;9.40;99.90;;;;;;6216232;23;20029;-71
2023/03/21 03:28:56;;;;;;;47.78;20.60;;;9.50;99.90;;;;;;6216477;23;20028;-71
2023/03/21 03:31:30;;;;;;;35.85;19.88;;;9.40;99.90;;;;;;6214664;23;20013;-71
2023/03/21 03:34:05;;;;;;;38.13;20.00;;;9.50;99.90;;;;;;6217484;23;20306;-71
2023/03/21 03:36:37;;;;;;;38.78;19.23;;;9.50;99.90;;;;;;6214495;23;20016;-71
2023/03/21 03:39:07;;;;;;;37.67;19.23;;;9.50;99.90;;;;;;6216166;23;20017;-71
2023/03/21 03:41:52;;;;;;;38.13;19.08;;;9.30;99.90;;;;;;6216406;23;20088;-71
2023/03/21 03:44:18;;;;;;;40.35;19.23;;;9.40;99.90;;;;;;6214598;23;20084;-71
2023/03/21 03:47:03;;;;;;;41.47;21.13;;;9.50;99.90;;;;;;6214552;23;20088;-71
2023/03/21 03:50:02;;;;;;;40.65;20.13;;;9.60;99.90;;;;;;6214395;23;20017;-71
2023/03/21 03:52:36;;;;;;;39.47;19.13;;;9.40;99.90;;;;;;6215746;23;20017;-71
2023/03/21 03:55:03;;;;;;;41.55;20.52;;;9.50;99.90;;;;;;6214827;23;20094;-71
2023/03/21 03:57:29;;;;;;;43.70;20.60;;;9.60;99.90;;;;;;6214194;23;20023;-71
2023/03/21 03:59:54;;;;;;;37.85;19.23;;;9.40;99.90;;;;;;6214303;23;20395;-71
2023/03/21 04:02:20;;;;;;;37.85;19.95;;;9.30;99.90;;;;;;6216198;23;20005;-71
2023/03/21 04:04:51;;;;;;;41.83;20.25;;;9.60;99.90;;;;;;6216154;23;20434;-71
2023/03/21 04:07:18;;;;;;;43.03;20.08;;;9.40;99.90;;;;;;6214306;23;20024;-71
2023/03/21 04:09:44;;;;;;;40.42;19.98;;;9.40;99.90;;;;;;6214081;23;20039;-71
2023/03/21 04:12:11;;;;;;;36.17;19.95;;;9.60;99.90;;;;;;6216153;23;20013;-71
2023/03/21 04:14:37;;;;;;;34.60;19.17;;;9.60;99.90;;;;;;6215767;23;20017;-71
2023/03/21 04:17:03;;;;;;;33.22;19.38;;;9.50;99.90;;;;;;6214521;23;20015;-71
2023/03/21 04:19:28;;;;;;;34.63;19.15;;;9.40;99.90;;;;;;6214200;23;20062;-71
2023/03/21 04:21:54;;;;;;;33.10;19.55;;;9.40;99.90;;;;;;6216080;23;20012;-71
2023/03/21 04:24:21;;;;;;;32.83;19.05;;;9.40;99.90;;;;;;6216258;23;20380;-71
2023/03/21 04:26:46;;;;;;;32.22;18.77;;;9.50;99.90;;;;;;6216062;23;20055;-71
2023/03/21 04:29:12;;;;;;;35.88;19.38;;;9.40;99.90;;;;;;6215955;23;20083;-71
2023/03/21 04:31:40;;;;;;;29.20;18.55;;;9.40;99.90;;;;;;6214107;23;20021;-71
2023/03/21 04:34:11;;;;;;;29.50;18.15;;;9.40;99.90;;;;;;6215598;23;20009;-71
2023/03/21 04:36:37;;;;;;;28.83;19.02;;;9.60;99.90;;;;;;6214030;23;20100;-71
2023/03/21 04:39:11;;;;;;;33.05;19.75;;;9.50;99.90;;;;;;6216030;23;20028;-71
2023/03/21 04:41:40;;;;;;;27.65;18.08;;;9.50;99.90;;;;;;6216015;23;20016;-71
2023/03/21 04:44:07;;;;;;;30.20;18.38;;;9.60;99.90;;;;;;6216052;23;20019;-72
2023/03/21 04:46:34;;;;;;;31.90;19.00;;;9.50;99.90;;;;;;6215976;23;20044;-71
2023/03/21 04:49:00;;;;;;;30.85;18.38;;;9.50;99.90;;;;;;6216008;23;20419;-71
2023/03/21 04:51:25;;;;;;;32.78;18.98;;;9.40;99.90;;;;;;6215608;23;20028;-71
2023/03/21 04:53:51;;;;;;;32.92;19.65;;;9.60;99.90;;;;;;6214048;23;20048;-71
2023/03/21 04:56:17;;;;;;;31.35;18.85;;;9.50;99.90;;;;;;6216366;23;20025;-71
2023/03/21 04:58:44;;;;;;;31.67;18.80;;;9.40;99.90;;;;;;6215911;23;20063;-71
2023/03/21 05:01:13;;;;;;;31.00;18.80;;;9.60;99.90;;;;;;6215908;23;20051;-71
2023/03/21 05:03:39;;;;;;;31.77;18.85;;;9.40;99.90;;;;;;6215907;23;20154;-71
2023/03/21 05:06:09;;;;;;;30.27;18.42;;;9.30;99.90;;;;;;6215974;23;20442;-71
2023/03/21 05:08:35;;;;;;;;;;;9.40;99.90;;;;;;6216590;23;20019;-71
2023/03/21 05:11:02;;;;;;;35.25;19.38;;;9.40;99.90;;;;;;6215941;23;19911;-71
2023/03/21 05:13:28;;;;;;;33.20;19.52;;;9.30;99.90;;;;;;6214005;23;20020;-71
2023/03/21 05:15:53;;;;;;;33.05;20.25;;;9.40;99.90;;;;;;6216512;23;20422;-71
2023/03/21 05:18:23;;;;;;;32.95;19.73;;;9.40;99.90;;;;;;6215744;23;20062;-71
2023/03/21 05:20:53;;;;;;;32.05;20.20;;;9.40;99.90;;;;;;6216282;23;20015;-71
2023/03/21 05:23:20;;;;;;;33.78;21.45;;;9.60;99.90;;;;;;6215897;23;20017;-72
2023/03/21 05:25:45;;;;;;;35.30;22.35;;;9.30;99.90;;;;;;6217626;23;20015;-71
2023/03/21 05:28:11;;;;;;;33.47;19.58;;;9.50;99.90;;;;;;6216696;23;20016;-71
2023/03/21 05:30:37;;;;;;;32.45;20.75;;;9.50;99.90;;;;;;6215742;23;20017;-71
2023/03/21 05:33:03;;;;;;;33.90;20.50;;;9.40;99.90;;;;;;6216084;23;20017;-71
2023/03/21 05:35:29;;;;;;;34.38;21.27;;;9.60;99.90;;;;;;6215749;23;20013;-71
2023/03/21 05:37:55;;;;;;;34.88;21.50;;;9.60;99.90;;;;;;6215595;23;20018;-71
2023/03/21 05:40:21;;;;;;;33.38;21.77;;;9.40;99.90;;;;;;6216102;23;20009;-71
2023/03/21 05:42:47;;;;;;;32.67;21.63;;;9.60;99.90;;;;;;6215566;23;20012;-71
2023/03/21 05:45:14;;;;;;;35.30;22.80;;;9.60;99.90;;;;;;6215558;23;20016;-71
2023/03/21 05:47:40;;;;;;;36.65;23.05;;;9.60;99.90;;;;;;6217370;23;20016;-71
2023/03/21 05:50:06;;;;;;;36.53;22.67;;;9.40;99.90;;;;;;6217973;23;20016;-71
2023/03/21 05:52:32;;;;;;;39.35;23.83;;;9.60;99.90;;;;;;6216953;23;20076;-71
2023/03/21 05:54:57;;;;;;;42.92;25.00;;;9.40;99.90;;;;;;6216967;23;20047;-71
2023/03/21 05:57:25;;;;;;;39.08;25.80;;;9.70;99.90;;;;;;6217256;23;20450;-71
2023/03/21 05:59:50;;;;;;;47.22;26.15;;;9.60;99.90;;;;;;6217327;23;20004;-71
2023/03/21 06:02:16;;;;;;;41.15;25.02;;;9.40;99.90;;;;;;6217201;23;20092;-71
2023/03/21 06:04:41;;;;;;;42.47;27.17;;;9.40;99.90;;;;;;6217227;23;20008;-71
2023/03/21 06:07:07;;;;;;;46.95;27.20;;;9.40;99.90;;;;;;6216849;23;20334;-71
2023/03/21 06:09:33;;;;;;;49.30;28.02;;;9.60;99.90;;;;;;6215321;23;20086;-83
2023/03/21 06:11:59;;;;;;;51.20;29.67;;;9.50;99.90;;;;;;6215574;23;20027;-71
2023/03/21 06:14:25;;;;;;;49.85;29.05;;;9.50;99.90;;;;;;6217334;23;20005;-71
2023/03/21 06:16:52;;;;;;;49.38;29.45;;;9.50;99.90;;;;;;6216739;23;20072;-71
2023/03/21 06:19:19;;;;;;;51.40;30.25;;;9.40;99.90;;;;;;6217112;23;20086;-72
2023/03/21 06:21:45;;;;;;;50.05;29.35;;;9.40;99.90;;;;;;6217124;23;20009;-73
2023/03/21 06:24:11;;;;;;;51.83;29.98;;;9.60;99.90;;;;;;6215453;23;20016;-72
2023/03/21 06:26:37;;;;;;;53.20;29.45;;;9.50;99.90;;;;;;6216740;23;20008;-74
2023/03/21 06:29:03;;;;;;;49.45;28.90;;;9.60;99.90;;;;;;6216641;23;20012;-72
2023/03/21 06:31:29;;;;;;;45.45;28.30;;;9.40;99.90;;;;;;6217141;23;20004;-74
2023/03/21 06:33:55;;;;;;;52.05;27.70;;;9.40;99.90;;;;;;6216683;23;20077;-75
2023/03/21 06:36:20;;;;;;;49.78;28.88;;;9.60;99.90;;;;;;6216991;23;20013;-75
2023/03/21 06:38:47;;;;;;;49.78;26.98;;;9.50;99.90;;;;;;6217085;23;20098;-75
2023/03/21 06:41:13;;;;;;;49.88;28.10;;;9.60;99.90;;;;;;6214988;23;20059;-75
2023/03/21 06:43:39;;;;;;;47.83;28.20;;;9.60;99.90;;;;;;6216990;23;20015;-75
2023/03/21 06:46:05;;;;;;;47.35;27.02;;;9.50;99.90;;;;;;6216868;23;20079;-75
2023/03/21 06:48:31;;;;;;;48.30;26.83;;;9.40;99.90;;;;;;6215074;23;20025;-75
2023/03/21 06:50:57;;;;;;;46.70;27.05;;;9.50;99.90;;;;;;6216849;23;20062;-74
2023/03/21 06:53:26;;;;;;;43.83;27.77;;;9.40;99.90;;;;;;6216520;23;20016;-74
2023/03/21 06:55:53;;;;;;;47.60;26.52;;;9.60;99.90;;;;;;6216490;23;20016;-74
2023/03/21 06:58:19;;;;;;;44.55;26.60;;;9.50;99.90;;;;;;6214807;23;20024;-74
2023/03/21 07:00:45;;;;;;;48.75;27.92;;;9.60;99.90;;;;;;6217381;23;20008;-73
2023/03/21 07:03:12;;;;;;;46.33;26.17;;;9.50;99.90;;;;;;6214921;23;20024;-75
2023/03/21 07:05:39;;;;;;;40.22;23.80;;;9.50;99.90;;;;;;6216803;23;20013;-70
2023/03/21 07:08:09;;;;;;;40.33;23.88;;;9.60;99.90;;;;;;6216813;23;20019;-71
2023/03/21 07:10:38;;;;;;;38.60;23.38;;;9.60;99.90;;;;;;6216843;23;20012;-74
2023/03/21 07:13:04;;;;;;;39.33;23.10;;;9.60;99.90;;;;;;6214970;23;20019;-72
2023/03/21 07:15:30;;;;;;;39.17;21.60;;;9.40;99.90;;;;;;6214657;23;20341;-70
2023/03/21 07:17:55;;;;;;;31.67;19.50;;;9.50;99.90;;;;;;6214645;23;20079;-72
2023/03/21 07:20:21;;;;;;;30.25;20.05;;;9.50;99.90;;;;;;6214741;23;20020;-71
2023/03/21 07:22:47;;;;;;;28.13;19.00;;;9.60;99.90;;;;;;6214965;23;20012;-70
2023/03/21 07:25:13;;;;;;;29.25;18.73;;;9.70;99.90;;;;;;6214783;23;20083;-71
2023/03/21 07:27:38;;;;;;;28.88;17.88;;;9.70;99.90;;;;;;6216503;23;20087;-71
2023/03/21 07:30:05;;;;;;;21.75;15.77;;;9.60;99.90;;;;;;6214608;23;20039;-71
2023/03/21 07:32:36;;;;;;;23.08;16.55;;;9.50;99.90;;;;;;6214684;23;20074;-71
2023/03/21 07:35:02;;;;;;;20.10;15.32;;;9.70;99.90;;;;;;6214541;23;20013;-70
2023/03/21 07:37:28;;;;;;;20.23;15.10;;;9.60;99.90;;;;;;6216412;23;20013;-71
2023/03/21 07:39:54;;;;;;;19.48;14.40;;;9.60;99.90;;;;;;6216981;23;20062;-71
2023/03/21 07:42:20;;;;;;;21.58;15.35;;;9.60;99.90;;;;;;6214609;23;20012;-70
2023/03/21 07:44:46;;;;;;;19.85;15.00;;;9.70;99.90;;;;;;6215958;23;20004;-73
2023/03/21 07:47:11;;;;;;;20.73;15.27;;;9.60;99.90;;;;;;6214991;23;20017;-73
2023/03/21 07:49:37;;;;;;;19.92;15.27;;;9.70;99.90;;;;;;6214540;23;20092;-73
2023/03/21 07:52:04;;;;;;;20.33;16.00;;;9.60;99.90;;;;;;6214946;23;20009;-77
2023/03/21 07:54:29;;;;;;;19.13;15.02;;;9.80;99.90;;;;;;6214566;23;20016;-72
2023/03/21 07:56:56;;;;;;;20.80;16.55;;;9.80;99.90;;;;;;6189312;23;20505;-72
2023/03/21 07:59:22;;;;;;;21.38;15.73;;;9.70;99.90;;;;;;6216347;23;20012;-72
2023/03/21 08:01:48;;;;;;;19.40;15.50;;;9.60;99.90;;;;;;6214348;23;20008;-72
2023/03/21 08:04:13;;;;;;;22.75;17.15;;;9.60;99.90;;;;;;6216183;23;20005;-73
2023/03/21 08:06:40;;;;;;;21.60;17.05;;;9.70;99.90;;;;;;6214363;23;20017;-72
2023/03/21 08:09:05;;;;;;;21.02;16.00;;;9.70;99.90;;;;;;6216256;23;20013;-72
2023/03/21 08:11:31;;;;;;;23.80;18.15;;;9.70;99.90;;;;;;6216246;23;20012;-72
2023/03/21 08:13:58;;;;;;;22.42;18.55;;;9.80;99.90;;;;;;6216114;23;20013;-72
2023/03/21 08:16:24;;;;;;;19.88;15.45;;;9.70;99.90;;;;;;6215894;23;20008;-72
2023/03/21 08:18:49;;;;;;;19.10;15.45;;;9.70;99.90;;;;;;6214224;23;20057;-72
2023/03/21 08:21:15;;;;;;;19.60;16.60;;;9.80;99.90;;;;;;6214328;23;20346;-72
2023/03/21 08:23:41;;;;;;;22.38;17.38;;;9.50;99.90;;;;;;6216223;23;20066;-72
2023/03/21 08:26:08;;;;;;;21.05;17.15;;;9.50;99.90;;;;;;6216324;23;20044;-72
2023/03/21 08:28:35;;;;;;;21.35;17.27;;;9.70;99.90;;;;;;6214276;23;20384;-72
2023/03/21 08:31:09;;;;;;;19.88;16.50;;;9.80;99.90;;;;;;6214309;23;20017;-72
2023/03/21 08:33:36;;;;;;;22.42;17.23;;;9.70;99.90;;;;;;6216151;23;20079;-72
2023/03/21 08:36:02;;;;;;;20.33;17.58;;;9.80;99.90;;;;;;6214193;23;20024;-72
2023/03/21 08:38:29;;;;;;;22.48;17.38;;;9.80;99.90;;;;;;6214057;23;20051;-72
2023/03/21 08:40:59;;;;;;;19.85;16.52;;;9.80;99.90;;;;;;6216275;23;20005;-82
2023/03/21 08:43:25;;;;;;;21.02;16.48;;;9.70;99.90;;;;;;6214330;23;20066;-73
2023/03/21 08:45:51;;;;;;;19.20;16.48;;;9.90;99.90;;;;;;6214155;23;20052;-71
2023/03/21 08:48:17;;;;;;;22.58;17.00;;;9.80;99.90;;;;;;6214168;23;20023;-75
2023/03/21 08:50:43;;;;;;;21.50;17.17;;;9.80;99.90;;;;;;6214193;23;20091;-72
2023/03/21 08:53:09;;;;;;;20.40;16.70;;;9.70;99.90;;;;;;6215649;23;20493;-72
2023/03/21 08:55:35;;;;;;;23.20;17.25;;;9.90;99.90;;;;;;6215962;23;20049;-71
2023/03/21 08:58:00;;;;;;;23.70;17.45;;;9.90;99.90;;;;;;6217613;23;20023;-72
2023/03/21 09:00:27;;;;;;;20.58;16.40;;;10.00;99.90;;;;;;6217969;23;20013;-72
2023/03/21 09:02:53;;;;;;;19.70;16.08;;;9.80;99.90;;;;;;6216131;23;20020;-72
2023/03/21 09:05:19;;;;;;;18.85;15.05;;;9.80;99.90;;;;;;6216101;23;20012;-72
2023/03/21 09:07:46;;;;;;;22.88;16.33;;;10.00;99.90;;;;;;6217861;23;20015;-72
2023/03/21 09:10:17;;;;;;;19.15;16.08;;;10.00;99.90;;;;;;6216124;23;20345;-72
2023/03/21 09:12:42;;;;;;;21.92;15.75;;;9.80;99.90;;;;;;6217848;23;20084;-73
2023/03/21 09:15:11;;;;;;;22.85;17.42;;;9.80;99.90;;;;;;6190869;23;20059;-73
2023/03/21 09:17:41;;;;;;;19.92;16.30;;;9.70;99.90;;;;;;6216229;23;20021;-72
2023/03/21 09:20:17;;;;;;;22.67;17.40;;;9.80;99.90;;;;;;6191350;23;20342;-72
2023/03/21 09:22:44;;;;;;;20.88;17.23;;;9.80;99.90;;;;;;6190920;23;20083;-73
2023/03/21 09:25:10;;;;;;;22.58;18.13;;;9.90;99.90;;;;;;6190811;23;20090;-72
2023/03/21 09:27:36;;;;;;;24.60;18.48;;;9.90;99.90;;;;;;6216461;23;20322;-72
2023/03/21 09:30:05;;;;;;;28.13;19.48;;;10.00;99.90;;;;;;6217636;23;20012;-74
2023/03/21 09:32:30;;;;;;;25.92;19.23;;;9.90;99.90;;;;;;6217713;23;20087;-74
2023/03/21 09:34:56;;;;;;;28.88;19.25;;;9.90;99.90;;;;;;6217237;23;20040;-74
2023/03/21 09:37:22;;;;;;;24.38;19.25;;;9.90;99.90;;;;;;6190545;23;20051;-73
2023/03/21 09:39:50;;;;;;;27.98;19.80;;;10.00;99.90;;;;;;6217666;23;20016;-73
2023/03/21 09:43:05;;;;;;;30.67;20.42;;;10.10;99.90;;;;;;6215642;23;20013;-73
2023/03/21 09:45:46;;;;;;;29.15;21.00;;;10.10;99.90;;;;;;6159468;23;20381;-74
2023/03/21 09:48:32;;;;;;;30.05;21.10;;;10.00;99.90;;;;;;6184623;23;20016;-74
2023/03/21 09:50:58;;;;;;;28.25;18.85;;;9.90;99.90;;;;;;6135053;23;20059;-73
2023/03/21 09:53:37;;;;;;;27.38;19.70;;;10.10;99.90;;;;;;6159790;23;20045;-74
2023/03/21 09:56:04;;;;;;;27.85;19.85;;;10.10;99.90;;;;;;6159767;23;20021;-74
2023/03/21 09:58:42;;;;;;;26.65;20.33;;;10.20;99.90;;;;;;6184619;23;20017;-74
2023/03/21 10:01:21;;;;;;;28.48;19.35;;;10.20;99.90;;;;;;6160018;23;20075;-74
2023/03/21 10:03:52;;;;;;;29.02;20.10;;;10.00;99.90;;;;;;6184546;23;20025;-74
2023/03/21 10:06:18;;;;;;;29.00;19.25;;;10.20;99.90;;;;;;6159656;23;20021;-75
2023/03/21 10:08:48;;;;;;;23.33;17.65;;;10.10;99.90;;;;;;6158965;23;20438;-74
2023/03/21 10:11:14;;;;;;;;;;;10.20;99.90;;;;;;6160073;23;20013;-75
2023/03/21 10:14:03;;;;;;;24.60;18.52;;;10.20;99.90;;;;;;6159548;23;19962;-74
2023/03/21 10:16:39;;;;;;;25.65;18.95;;;10.30;99.90;;;;;;6159529;23;20012;-74
2023/03/21 10:19:11;;;;;;;27.00;19.27;;;10.20;99.90;;;;;;6184503;23;20017;-74
2023/03/21 10:21:42;;;;;;;27.85;18.35;;;10.20;99.90;;;;;;6187749;23;20012;-74
2023/03/21 10:24:11;;;;;;;30.33;20.85;;;10.20;99.90;;;;;;6215786;23;20009;-74
2023/03/21 10:26:36;;;;;;;31.90;19.75;;;10.30;99.90;;;;;;6215529;23;20059;-74
2023/03/21 10:29:02;;;;;;;26.75;19.50;;;10.10;99.90;;;;;;6215588;23;20365;-74
2023/03/21 10:31:29;;;;;;;27.17;18.90;;;10.20;99.90;;;;;;6215216;23;20013;-72
2023/03/21 10:33:58;;;;;;;25.58;18.15;;;10.40;99.90;;;;;;6215259;23;20144;-71
2023/03/21 10:36:29;;;;;;;27.00;19.40;;;10.30;99.90;;;;;;6215285;23;20441;-73
2023/03/21 10:38:57;;;;;;;23.33;17.50;;;10.40;99.90;;;;;;6190137;23;20020;-76
2023/03/21 10:41:22;;;;;;;23.00;16.92;;;10.20;99.90;;;;;;6215165;23;20012;-76
2023/03/21 10:44:13;;;;;;;26.20;17.77;;;10.20;99.90;;;;;;6215195;23;20394;-76
2023/03/21 10:46:53;;;;;;;20.10;16.67;;;10.40;99.90;;;;;;6217004;23;20008;-76
2023/03/21 10:49:20;;;;;;;23.70;17.90;;;10.40;99.90;;;;;;6216931;23;20083;-76
2023/03/21 10:51:48;;;;;;;26.60;17.55;;;10.50;99.90;;;;;;6214952;23;20083;-76
2023/03/21 10:54:18;;;;;;;22.90;17.38;;;10.30;99.90;;;;;;6214755;23;20013;-75
2023/03/21 10:56:50;;;;;;;;;;;10.40;99.90;;;;;;6215518;23;20338;-75
2023/03/21 10:59:19;;;;;;;26.80;17.92;;;10.50;99.90;;;;;;6215121;23;20034;-76
2023/03/21 11:01:49;;;;;;;19.48;16.02;;;10.40;99.90;;;;;;6215008;23;20071;-76
2023/03/21 11:04:23;;;;;;;22.10;16.40;;;10.40;99.90;;;;;;6214992;23;20016;-77
2023/03/21 11:06:54;;;;;;;22.42;15.57;;;10.50;99.90;;;;;;6189765;23;20044;-73
2023/03/21 11:09:23;;;;;;;22.23;15.82;;;10.70;99.90;;;;;;6216704;23;20039;-73
2023/03/21 11:12:09;;;;;;;23.23;15.80;;;10.60;99.90;;;;;;6189883;23;20012;-74
2023/03/21 11:14:38;;;;;;;23.05;15.63;;;10.80;99.90;;;;;;6214859;23;20509;-74
2023/03/21 11:17:28;;;;;;;24.27;15.85;;;10.80;99.90;;;;;;6216637;23;20012;-74
2023/03/21 11:20:08;;;;;;;23.30;16.33;;;10.70;99.90;;;;;;6216616;23;20082;-73
2023/03/21 11:22:40;;;;;;;24.13;16.25;;;11.00;99.90;;;;;;6215258;23;20330;-73
2023/03/21 11:25:24;;;;;;;22.02;16.15;;;10.90;99.90;;;;;;6214879;23;20449;-74
2023/03/21 11:27:54;;;;;;;21.40;15.00;;;11.10;99.90;;;;;;6214722;23;20024;-73
2023/03/21 11:30:26;;;;;;;19.52;15.07;;;11.10;99.90;;;;;;6216553;23;20013;-70
2023/03/21 11:33:02;;;;;;;20.27;15.07;;;11.10;99.90;;;;;;6214574;23;20095;-71
2023/03/21 11:35:33;;;;;;;19.75;15.10;;;11.10;99.90;;;;;;6214603;23;20009;-70
2023/03/21 11:37:59;;;;;;;21.63;14.68;;;11.20;99.90;;;;;;6214522;23;20012;-73
2023/03/21 11:40:26;;;;;;;19.83;15.23;;;11.40;99.90;;;;;;6189510;23;20020;-73
2023/03/21 11:42:57;;;;;;;20.63;14.60;;;11.50;99.90;;;;;;6216060;23;20017;-74
2023/03/21 11:45:35;;;;;;;17.98;13.98;;;11.60;99.90;;;;;;6214614;23;20024;-73
2023/03/21 11:48:10;;;;;;;18.70;14.98;;;11.50;99.90;;;;;;6214903;23;20012;-73
2023/03/21 11:50:40;;;;;;;20.30;14.65;;;11.50;99.90;;;;;;6216598;23;20098;-72
2023/03/21 11:53:26;;;;;;;;;;;11.70;99.90;;;;;;6216449;23;20478;-83
2023/03/21 11:56:11;;;;;;;14.00;11.50;;;11.80;99.90;;;;;;6214500;23;19923;-75
2023/03/21 11:58:51;;;;;;;19.77;13.23;;;11.60;99.90;;;;;;6214402;23;20024;-76
2023/03/21 12:01:32;;;;;;;15.43;11.88;;;11.70;99.90;;;;;;6216392;23;20063;-75
2023/03/21 12:04:36;;;;;;;17.65;12.75;;;11.70;99.90;;;;;;6189449;23;20019;-76
2023/03/21 12:07:15;;;;;;;14.77;11.63;;;11.70;99.90;;;;;;6158587;23;20017;-76
2023/03/21 12:10:18;;;;;;;14.20;11.13;;;11.80;99.90;;;;;;6183306;23;20017;-76
2023/03/21 12:13:12;;;;;;;15.90;11.82;;;11.80;99.90;;;;;;6124161;23;20368;-76
2023/03/21 12:16:04;;;;;;;14.93;10.82;;;11.70;99.90;;;;;;6075606;23;20014;-76
2023/03/21 12:19:06;;;;;;;15.55;10.00;;;11.70;99.90;;;;;;6124208;23;20042;-75
2023/03/21 12:21:47;;;;;;;14.85;9.32;;;11.80;99.90;;;;;;6124056;23;20032;-76
2023/03/21 12:24:24;;;;;;;13.18;9.32;;;11.90;99.90;;;;;;6124151;23;20081;-76
2023/03/21 12:27:05;;;;;;;12.52;9.45;;;11.90;99.90;;;;;;6099788;23;20010;-76
2023/03/21 12:29:52;;;;;;;12.90;9.48;;;11.80;99.90;;;;;;6124341;23;20021;-76
2023/03/21 12:32:30;;;;;;;16.50;9.18;;;12.10;99.90;;;;;;6101692;23;20119;-76
2023/03/21 12:35:17;;;;;;;14.23;9.70;;;12.00;99.90;;;;;;6101773;23;20111;-76
2023/03/21 12:38:14;;;;;;;14.05;8.57;;;12.00;99.90;;;;;;6129933;23;20025;-76
2023/03/21 12:40:58;;;;;;;13.82;8.68;;;11.90;99.90;;;;;;6160395;23;20009;-76
2023/03/21 12:43:52;;;;;;;16.17;9.45;;;11.80;99.90;;;;;;6185468;23;20013;-75
2023/03/21 12:46:47;;;;;;;12.63;8.25;;;11.80;99.90;;;;;;6181670;23;20121;-75
2023/03/21 12:49:24;;;;;;;14.65;9.10;;;11.70;99.90;;;;;;6200374;23;20341;-75
2023/03/21 12:51:57;;;;;;;14.30;9.07;;;11.70;99.90;;;;;;6218021;23;20013;-75
2023/03/21 12:54:41;;;;;;;12.98;8.75;;;11.60;99.90;;;;;;6218076;23;20048;-75